createdAt,value
2023-05-10T00:00:24.613Z,1.13
2023-05-10T00:02:53.807Z,0.93
2023-05-10T00:05:20.593Z,1.27
2023-05-10T00:07:47.266Z,1.70
2023-05-10T00:10:16.346Z,0.60
2023-05-10T00:12:43.491Z,1.30
2023-05-10T00:15:15.135Z,0.57
2023-05-10T00:17:41.972Z,1.35
2023-05-10T00:20:09.124Z,1.05
2023-05-10T00:22:35.824Z,0.98
2023-05-10T00:25:05.153Z,1.20
2023-05-10T00:27:31.803Z,1.15
2023-05-10T00:30:01.158Z,1.13
2023-05-10T00:32:30.639Z,0.70
2023-05-10T00:34:57.300Z,0.95
2023-05-10T00:37:26.256Z,1.10
2023-05-10T00:39:52.875Z,1.45
2023-05-10T00:42:19.536Z,1.40
2023-05-10T00:44:47.501Z,1.35
2023-05-10T00:47:14.240Z,0.93
2023-05-10T00:49:45.045Z,0.77
2023-05-10T00:52:14.202Z,1.10
2023-05-10T00:54:43.022Z,1.00
2023-05-10T00:57:12.197Z,1.02
2023-05-10T00:59:39.019Z,1.45
2023-05-10T01:02:08.823Z,0.63
2023-05-10T01:04:41.613Z,1.10
2023-05-10T01:07:08.665Z,9.07
2023-05-10T01:09:38.065Z,9.60
2023-05-10T01:12:08.233Z,9.45
2023-05-10T01:14:37.169Z,10.57
2023-05-10T01:17:05.962Z,10.73
2023-05-10T01:19:35.877Z,10.30
2023-05-10T01:22:36.495Z,11.38
2023-05-10T01:25:06.142Z,10.88
2023-05-10T01:27:35.544Z,11.52
2023-05-10T01:30:39.009Z,11.27
2023-05-10T01:33:21.149Z,9.43
2023-05-10T01:36:03.208Z,8.55
2023-05-10T01:38:59.557Z,7.05
2023-05-10T01:41:29.307Z,5.80
2023-05-10T01:44:14.392Z,6.20
2023-05-10T01:46:41.851Z,5.77
2023-05-10T01:49:30.169Z,5.53
2023-05-10T01:52:06.640Z,5.68
2023-05-10T01:54:34.667Z,5.15
2023-05-10T01:57:04.789Z,4.80
2023-05-10T01:59:41.574Z,4.93
2023-05-10T02:02:13.868Z,5.35
2023-05-10T02:04:41.926Z,5.72
2023-05-10T02:07:10.397Z,5.03
2023-05-10T02:09:38.223Z,5.40
2023-05-10T02:12:09.325Z,6.30
2023-05-10T02:14:42.408Z,5.63
2023-05-10T02:17:10.531Z,5.63
2023-05-10T02:19:46.242Z,5.80
2023-05-10T02:22:13.803Z,5.97
2023-05-10T02:24:41.116Z,6.25
2023-05-10T02:27:12.064Z,6.10
2023-05-10T02:29:39.503Z,6.50
2023-05-10T02:32:09.059Z,6.80
2023-05-10T02:34:36.244Z,5.95
2023-05-10T02:37:06.887Z,7.05
2023-05-10T02:39:33.973Z,6.22
2023-05-10T02:42:03.269Z,6.63
2023-05-10T02:44:36.624Z,7.32
2023-05-10T02:47:03.306Z,6.22
2023-05-10T02:49:32.516Z,6.93
2023-05-10T02:52:03.871Z,6.25
2023-05-10T02:54:37.853Z,6.75
2023-05-10T02:57:11.172Z,7.00
2023-05-10T02:59:38.070Z,6.72
2023-05-10T03:02:05.431Z,6.18
2023-05-10T03:04:32.250Z,6.45
2023-05-10T03:06:59.076Z,6.80
2023-05-10T03:09:25.771Z,6.75
2023-05-10T03:12:15.069Z,6.93
2023-05-10T03:15:00.554Z,7.03
2023-05-10T03:17:50.478Z,8.10
2023-05-10T03:20:34.418Z,7.85
2023-05-10T03:23:08.473Z,7.43
2023-05-10T03:25:36.121Z,8.05
2023-05-10T03:28:10.845Z,7.60
2023-05-10T03:30:43.848Z,7.63
2023-05-10T03:33:10.628Z,9.30
2023-05-10T03:35:37.305Z,8.85
2023-05-10T03:38:03.942Z,8.77
2023-05-10T03:40:35.479Z,8.98
2023-05-10T03:43:02.201Z,10.38
2023-05-10T03:45:29.127Z,10.55
2023-05-10T03:47:56.259Z,12.32
2023-05-10T03:50:27.797Z,12.23
2023-05-10T03:52:54.938Z,11.88
2023-05-10T03:55:21.785Z,13.68
2023-05-10T03:57:50.450Z,12.98
2023-05-10T04:00:21.859Z,14.40
2023-05-10T04:02:51.121Z,16.33
2023-05-10T04:05:20.011Z,15.98
2023-05-10T04:07:48.021Z,15.65
2023-05-10T04:10:17.871Z,15.20
2023-05-10T04:12:47.242Z,16.35
2023-05-10T04:15:14.051Z,15.63
2023-05-10T04:17:42.864Z,15.00
2023-05-10T04:20:10.140Z,15.10
2023-05-10T04:22:36.776Z,15.43
2023-05-10T04:25:05.704Z,14.45
2023-05-10T04:27:34.940Z,14.20
2023-05-10T04:30:02.003Z,14.52
2023-05-10T04:32:29.103Z,15.77
2023-05-10T04:34:55.944Z,16.38
2023-05-10T04:37:25.060Z,15.15
2023-05-10T04:39:51.718Z,15.50
2023-05-10T04:42:20.802Z,15.45
2023-05-10T04:44:49.949Z,14.23
2023-05-10T04:47:17.233Z,14.77
2023-05-10T04:49:43.914Z,16.00
2023-05-10T04:52:10.721Z,15.00
2023-05-10T04:54:39.914Z,15.43
2023-05-10T04:57:06.557Z,14.80
2023-05-10T04:59:35.669Z,16.20
2023-05-10T05:02:02.562Z,15.68
2023-05-10T05:04:30.403Z,16.45
2023-05-10T05:06:57.061Z,15.80
2023-05-10T05:09:23.784Z,16.13
2023-05-10T05:11:50.471Z,16.20
2023-05-10T05:14:17.586Z,16.23
2023-05-10T05:16:46.534Z,15.10
2023-05-10T05:19:16.395Z,14.80
2023-05-10T05:21:45.526Z,15.55
2023-05-10T05:24:13.574Z,14.95
2023-05-10T05:26:40.238Z,14.80
2023-05-10T05:29:06.907Z,14.18
2023-05-10T05:31:33.614Z,14.20
2023-05-10T05:34:00.255Z,14.10
2023-05-10T05:36:27.089Z,12.77
2023-05-10T05:38:58.133Z,12.80
2023-05-10T05:41:25.875Z,13.02
2023-05-10T05:43:52.519Z,12.88
2023-05-10T05:46:21.353Z,13.05
2023-05-10T05:48:50.171Z,12.32
2023-05-10T05:51:19.073Z,12.80
2023-05-10T05:53:46.144Z,13.30
2023-05-10T05:56:15.033Z,12.07
2023-05-10T05:58:44.533Z,12.07
2023-05-10T06:01:11.186Z,11.93
2023-05-10T06:03:40.430Z,12.18
2023-05-10T06:06:09.593Z,12.30
2023-05-10T06:08:38.376Z,12.27
2023-05-10T06:11:05.256Z,12.88
2023-05-10T06:13:33.701Z,13.13
2023-05-10T06:16:00.670Z,12.88
2023-05-10T06:18:27.337Z,13.77
2023-05-10T06:20:54.044Z,14.27
2023-05-10T06:23:26.396Z,14.13
2023-05-10T06:25:53.408Z,13.90
2023-05-10T06:28:20.067Z,13.63
2023-05-10T06:30:49.242Z,15.13
2023-05-10T06:33:20.628Z,14.82
2023-05-10T06:35:49.417Z,14.07
2023-05-10T06:38:16.175Z,13.88
2023-05-10T06:40:43.756Z,14.85
2023-05-10T06:43:14.170Z,15.70
2023-05-10T06:45:41.832Z,16.27
2023-05-10T06:48:08.881Z,15.10
2023-05-10T06:50:35.543Z,14.85
2023-05-10T06:53:05.425Z,14.68
2023-05-10T06:55:32.167Z,14.60
2023-05-10T06:58:01.289Z,14.65
2023-05-10T07:00:28.076Z,15.23
2023-05-10T07:02:57.257Z,14.55
2023-05-10T07:05:24.172Z,13.77
2023-05-10T07:07:51.149Z,15.43
2023-05-10T07:10:20.005Z,14.55
2023-05-10T07:12:49.138Z,14.05
2023-05-10T07:15:17.103Z,13.75
2023-05-10T07:17:45.894Z,14.20
2023-05-10T07:20:13.254Z,14.07
2023-05-10T07:22:39.952Z,12.80
2023-05-10T07:25:07.118Z,12.43
2023-05-10T07:27:33.758Z,13.48
2023-05-10T07:30:01.472Z,14.50
2023-05-10T07:32:28.233Z,13.90
2023-05-10T07:34:55.061Z,14.70
2023-05-10T07:37:21.712Z,14.50
2023-05-10T07:39:50.805Z,12.82
2023-05-10T07:42:19.629Z,14.15
2023-05-10T07:44:49.090Z,13.48
2023-05-10T07:47:18.261Z,13.27
2023-05-10T07:49:47.477Z,13.55
2023-05-10T07:52:14.576Z,13.52
2023-05-10T07:54:43.740Z,13.38
2023-05-10T07:57:10.557Z,12.75
2023-05-10T07:59:37.376Z,11.93
2023-05-10T08:02:04.099Z,11.88
2023-05-10T08:04:30.990Z,12.35
2023-05-10T08:06:59.925Z,11.20
2023-05-10T08:09:27.688Z,12.50
2023-05-10T08:11:57.275Z,11.95
2023-05-10T08:14:23.948Z,11.30
2023-05-10T08:16:50.647Z,11.68
2023-05-10T08:19:22.180Z,8.75
2023-05-10T08:21:51.847Z,11.07
2023-05-10T08:24:18.517Z,11.65
2023-05-10T08:26:45.162Z,12.07
2023-05-10T08:29:11.820Z,13.60
2023-05-10T08:31:43.300Z,1.40
2023-05-10T08:34:12.457Z,1.73
2023-05-10T08:36:39.193Z,1.85
2023-05-10T08:39:11.185Z,1.20
2023-05-10T08:41:45.932Z,1.25
2023-05-10T08:44:12.914Z,1.45
2023-05-10T08:46:45.021Z,1.58
2023-05-10T08:49:17.424Z,2.65
2023-05-10T08:51:48.132Z,1.02
2023-05-10T08:54:15.695Z,1.77
2023-05-10T08:56:49.761Z,1.63
2023-05-10T08:59:19.067Z,1.45
2023-05-10T09:01:50.278Z,2.38
2023-05-10T09:04:17.024Z,2.15
2023-05-10T09:06:44.017Z,1.50
2023-05-10T09:09:10.875Z,3.70
2023-05-10T09:11:39.947Z,1.58
2023-05-10T09:14:06.837Z,2.20
2023-05-10T09:16:33.694Z,3.20
2023-05-10T09:21:29.231Z,2.15
2023-05-10T09:23:56.305Z,2.05
2023-05-10T09:26:25.953Z,1.83
2023-05-10T09:28:57.767Z,1.80
2023-05-10T09:31:27.832Z,1.40
2023-05-10T09:33:54.717Z,2.05
2023-05-10T09:36:21.427Z,1.13
2023-05-10T09:38:51.835Z,2.05
2023-05-10T09:41:20.082Z,0.50
2023-05-10T09:43:47.214Z,1.45
2023-05-10T09:46:14.363Z,1.55
2023-05-10T09:48:46.131Z,2.03
2023-05-10T09:51:24.067Z,13.40
2023-05-10T09:54:15.668Z,13.18
2023-05-10T09:56:43.498Z,12.90
2023-05-10T09:59:13.900Z,12.63
2023-05-10T10:01:52.315Z,13.45
2023-05-10T10:04:20.795Z,14.40
2023-05-10T10:07:08.166Z,13.45
2023-05-10T10:09:37.622Z,13.18
2023-05-10T10:12:06.660Z,12.85
2023-05-10T10:14:38.225Z,12.30
2023-05-10T10:17:08.776Z,12.07
2023-05-10T10:19:38.641Z,11.98
2023-05-10T10:22:07.737Z,12.93
2023-05-10T10:24:38.814Z,11.25
2023-05-10T10:27:23.635Z,11.15
2023-05-10T10:30:09.973Z,10.93
2023-05-10T10:33:34.105Z,9.77
2023-05-10T10:36:03.303Z,9.80
2023-05-10T10:38:47.378Z,9.20
2023-05-10T10:41:41.796Z,7.78
2023-05-10T10:44:26.368Z,8.00
2023-05-10T10:47:19.531Z,8.65
2023-05-10T10:50:04.666Z,8.38
2023-05-10T10:52:43.748Z,9.02
2023-05-10T10:55:24.188Z,8.40
2023-05-10T10:58:03.632Z,8.25
2023-05-10T11:00:42.412Z,7.43
2023-05-10T11:03:19.814Z,8.50
2023-05-10T11:05:48.051Z,7.40
2023-05-10T11:08:29.469Z,7.47
2023-05-10T11:11:03.127Z,7.25
2023-05-10T11:13:43.269Z,6.85
2023-05-10T11:16:27.934Z,7.00
2023-05-10T11:19:14.087Z,6.65
2023-05-10T11:22:16.660Z,7.05
2023-05-10T11:24:59.074Z,7.28
2023-05-10T11:27:28.405Z,5.60
2023-05-10T11:29:57.397Z,5.88
2023-05-10T11:32:24.284Z,5.15
2023-05-10T11:34:50.979Z,4.95
2023-05-10T11:37:19.394Z,4.43
2023-05-10T11:39:50.521Z,4.40
2023-05-10T11:42:17.758Z,4.13
2023-05-10T11:44:47.835Z,3.58
2023-05-10T11:47:14.534Z,3.78
2023-05-10T11:49:48.066Z,3.95
2023-05-10T11:52:19.493Z,3.53
2023-05-10T11:54:55.876Z,3.05
2023-05-10T11:57:27.956Z,3.25
2023-05-10T11:59:56.234Z,2.67
2023-05-10T12:02:27.653Z,2.65
2023-05-10T12:04:56.008Z,2.63
2023-05-10T12:07:29.577Z,2.53
2023-05-10T12:10:16.156Z,2.20
2023-05-10T12:12:48.396Z,2.10
2023-05-10T12:15:21.012Z,2.40
2023-05-10T12:17:48.637Z,2.08
2023-05-10T12:20:18.746Z,1.40
2023-05-10T12:22:48.228Z,2.10
2023-05-10T12:25:17.443Z,2.03
2023-05-10T12:27:57.710Z,2.17
2023-05-10T12:30:32.703Z,2.10
2023-05-10T12:33:14.115Z,2.20
2023-05-10T12:35:53.525Z,2.22
2023-05-10T12:38:39.398Z,2.05
2023-05-10T12:41:08.643Z,2.75
2023-05-10T12:43:36.409Z,2.78
2023-05-10T12:46:10.556Z,2.30
2023-05-10T12:48:40.975Z,2.33
2023-05-10T12:51:10.583Z,2.40
2023-05-10T12:53:37.729Z,2.55
2023-05-10T12:56:04.762Z,2.15
2023-05-10T12:58:36.192Z,2.55
2023-05-10T13:01:06.065Z,2.80
2023-05-10T13:03:32.939Z,2.70
2023-05-10T13:05:59.600Z,3.13
2023-05-10T13:08:26.430Z,2.97
2023-05-10T13:10:53.272Z,2.80
2023-05-10T13:13:20.045Z,3.40
2023-05-10T13:15:46.791Z,2.78
2023-05-10T13:18:13.765Z,2.75
2023-05-10T13:20:40.600Z,2.20
2023-05-10T13:23:07.276Z,2.58
2023-05-10T13:25:36.533Z,2.40
2023-05-10T13:28:05.892Z,2.50
2023-05-10T13:30:32.563Z,2.53
2023-05-10T13:32:59.224Z,2.08
2023-05-10T13:35:26.057Z,2.10
2023-05-10T13:37:57.721Z,1.85
2023-05-10T13:40:24.464Z,1.52
2023-05-10T13:42:53.986Z,1.33
2023-05-10T13:45:20.642Z,1.73
2023-05-10T13:47:49.549Z,1.50
2023-05-10T13:50:16.347Z,1.50
2023-05-10T13:52:42.948Z,1.60
2023-05-10T13:55:09.812Z,1.60
2023-05-10T13:57:36.904Z,1.08
2023-05-10T14:00:04.068Z,1.08
2023-05-10T14:02:30.940Z,1.20
2023-05-10T14:05:04.794Z,1.70
2023-05-10T14:07:34.184Z,1.20
2023-05-10T14:10:03.828Z,0.90
2023-05-10T14:12:33.054Z,1.00
2023-05-10T14:14:59.852Z,1.10
2023-05-10T14:17:29.401Z,1.10
2023-05-10T14:20:00.978Z,1.20
2023-05-10T14:22:27.641Z,1.20
2023-05-10T14:24:57.555Z,1.00
2023-05-10T14:27:29.260Z,1.08
2023-05-10T14:29:56.061Z,1.30
2023-05-10T14:32:22.933Z,1.48
2023-05-10T14:34:49.580Z,0.98
2023-05-10T14:37:17.079Z,0.90
2023-05-10T14:39:46.279Z,1.10
2023-05-10T14:42:15.256Z,1.23
2023-05-10T14:44:41.917Z,1.15
2023-05-10T14:47:12.023Z,1.20
2023-05-10T14:49:39.047Z,1.25
2023-05-10T14:52:05.719Z,1.33
2023-05-10T14:54:37.177Z,1.42
2023-05-10T14:57:04.018Z,1.60
2023-05-10T14:59:30.839Z,1.50
2023-05-10T15:01:57.986Z,1.08
2023-05-10T15:04:27.083Z,1.10
2023-05-10T15:07:00.147Z,1.13
2023-05-10T15:09:28.441Z,1.08
2023-05-10T15:11:55.812Z,1.10
2023-05-10T15:14:23.515Z,1.30
2023-05-10T15:16:50.285Z,1.00
2023-05-10T15:19:16.911Z,1.23
2023-05-10T15:21:45.418Z,1.02
2023-05-10T15:24:12.126Z,1.00
2023-05-10T15:26:41.366Z,1.13
2023-05-10T15:29:08.064Z,1.27
2023-05-10T15:31:37.579Z,1.40
2023-05-10T15:34:04.322Z,1.30
2023-05-10T15:36:32.577Z,1.40
2023-05-10T15:38:59.281Z,1.08
2023-05-10T15:41:26.178Z,1.17
2023-05-10T15:43:52.866Z,1.30
2023-05-10T15:46:19.600Z,1.55
2023-05-10T15:48:46.470Z,1.45
2023-05-10T15:51:13.303Z,1.90
2023-05-10T15:53:52.812Z,2.00
2023-05-10T15:56:27.413Z,1.90
2023-05-10T15:58:54.067Z,1.70
2023-05-10T16:01:23.216Z,1.80
2023-05-10T16:03:49.869Z,1.20
2023-05-10T16:06:16.607Z,1.60
2023-05-10T16:08:43.292Z,1.52
2023-05-10T16:11:12.412Z,1.30
2023-05-10T16:13:41.310Z,1.30
2023-05-10T16:16:10.457Z,1.23
2023-05-10T16:18:37.364Z,0.93
2023-05-10T16:21:04.274Z,1.13
2023-05-10T16:23:33.199Z,0.95
2023-05-10T16:26:03.140Z,0.90
2023-05-10T16:28:35.178Z,0.98
2023-05-10T16:31:06.347Z,0.90
2023-05-10T16:33:33.056Z,1.20
2023-05-10T16:36:06.063Z,1.05
2023-05-10T16:38:34.957Z,1.20
2023-05-10T16:41:04.660Z,1.00
2023-05-10T16:43:34.845Z,1.00
2023-05-10T16:46:01.748Z,1.00
2023-05-10T16:48:28.485Z,1.13
2023-05-10T16:50:57.718Z,1.08
2023-05-10T16:53:29.071Z,1.30
2023-05-10T16:55:55.872Z,1.17
2023-05-10T16:58:22.580Z,1.20
2023-05-10T17:00:49.301Z,1.27
2023-05-10T17:03:18.316Z,1.42
2023-05-10T17:05:44.991Z,1.92
2023-05-10T17:08:11.651Z,1.70
2023-05-10T17:10:41.480Z,1.90
2023-05-10T17:13:10.445Z,1.88
2023-05-10T17:15:38.483Z,1.50
2023-05-10T17:18:05.635Z,1.65
2023-05-10T17:20:34.861Z,1.65
2023-05-10T17:23:03.800Z,1.65
2023-05-10T17:25:30.496Z,1.50
2023-05-10T17:27:59.679Z,1.70
2023-05-10T17:30:32.481Z,1.70
2023-05-10T17:33:02.333Z,2.20
2023-05-10T17:35:32.351Z,2.00
2023-05-10T17:38:01.500Z,1.70
2023-05-10T17:40:28.294Z,1.92
2023-05-10T17:42:54.956Z,2.00
2023-05-10T17:45:21.805Z,2.33
2023-05-10T17:47:48.575Z,2.67
2023-05-10T17:50:17.511Z,2.60
2023-05-10T17:52:44.234Z,3.83
2023-05-10T17:55:13.389Z,4.00
2023-05-10T17:57:42.422Z,4.25
2023-05-10T18:00:10.085Z,3.75
2023-05-10T18:02:42.449Z,3.42
2023-05-10T18:05:10.915Z,3.55
2023-05-10T18:07:37.635Z,3.15
2023-05-10T18:10:04.646Z,3.40
2023-05-10T18:12:35.850Z,3.72
2023-05-10T18:15:04.950Z,3.28
2023-05-10T18:17:36.835Z,3.20
2023-05-10T18:20:03.829Z,3.72
2023-05-10T18:22:30.493Z,3.35
2023-05-10T18:24:59.827Z,3.70
2023-05-10T18:27:28.885Z,3.40
2023-05-10T18:29:55.526Z,3.88
2023-05-10T18:32:26.893Z,4.20
2023-05-10T18:34:55.663Z,4.22
2023-05-10T18:37:22.554Z,4.35
2023-05-10T18:39:52.004Z,4.13
2023-05-10T18:42:20.342Z,4.60
2023-05-10T18:44:49.535Z,4.32
2023-05-10T18:47:16.239Z,3.97
2023-05-10T18:49:45.147Z,3.92
2023-05-10T18:52:15.933Z,4.60
2023-05-10T18:54:42.612Z,3.97
2023-05-10T18:57:09.645Z,3.72
2023-05-10T18:59:36.377Z,4.30
2023-05-10T19:02:03.191Z,4.07
2023-05-10T19:04:32.062Z,3.42
2023-05-10T19:07:01.919Z,4.35
2023-05-10T19:09:28.850Z,3.38
2023-05-10T19:11:55.655Z,3.28
2023-05-10T19:14:25.180Z,3.67
2023-05-10T19:16:52.103Z,3.70
2023-05-10T19:19:20.439Z,3.47
2023-05-10T19:21:49.390Z,3.70
2023-05-10T19:24:16.425Z,3.55
2023-05-10T19:26:43.040Z,3.13
2023-05-10T19:29:12.207Z,3.30
2023-05-10T19:31:41.235Z,3.58
2023-05-10T19:34:07.937Z,3.55
2023-05-10T19:36:35.310Z,3.75
2023-05-10T19:39:02.299Z,3.90
2023-05-10T19:41:29.009Z,4.18
2023-05-10T19:43:58.140Z,4.00
2023-05-10T19:46:27.060Z,3.63
2023-05-10T19:48:56.009Z,3.90
2023-05-10T19:51:23.098Z,3.85
2023-05-10T19:53:49.783Z,4.35
2023-05-10T19:56:18.744Z,4.18
2023-05-10T19:58:50.191Z,4.20
2023-05-10T20:01:16.902Z,4.15
2023-05-10T20:03:43.593Z,4.05
2023-05-10T20:06:10.331Z,4.80
2023-05-10T20:08:41.434Z,4.10
2023-05-10T20:11:10.561Z,4.82
2023-05-10T20:13:42.162Z,4.60
2023-05-10T20:16:08.817Z,4.30
2023-05-10T20:18:35.589Z,4.45
2023-05-10T20:21:02.362Z,5.13
2023-05-10T20:23:29.046Z,5.07
2023-05-10T20:25:56.016Z,5.57
2023-05-10T20:28:24.179Z,5.22
2023-05-10T20:30:53.326Z,5.50
2023-05-10T20:33:21.031Z,5.63
2023-05-10T20:35:47.709Z,5.45
2023-05-10T20:38:14.361Z,5.57
2023-05-10T20:40:41.484Z,5.28
2023-05-10T20:43:12.743Z,4.78
2023-05-10T20:45:39.548Z,4.82
2023-05-10T20:48:06.426Z,5.07
2023-05-10T20:50:33.224Z,5.65
2023-05-10T20:53:01.115Z,4.97
2023-05-10T20:55:28.512Z,6.18
2023-05-10T20:57:55.511Z,5.90
2023-05-10T21:00:22.213Z,6.15
2023-05-10T21:02:48.912Z,5.57
2023-05-10T21:05:20.552Z,5.78
2023-05-10T21:07:49.778Z,5.82
2023-05-10T21:10:16.748Z,6.10
2023-05-10T21:12:46.348Z,6.57
2023-05-10T21:15:12.981Z,6.13
2023-05-10T21:17:44.183Z,5.88
2023-05-10T21:20:11.619Z,5.95
2023-05-10T21:22:40.513Z,5.95
2023-05-10T21:25:07.682Z,5.93
2023-05-10T21:27:34.824Z,5.82
2023-05-10T21:30:03.758Z,6.15
2023-05-10T21:32:32.705Z,5.43
2023-05-10T21:35:02.257Z,5.65
2023-05-10T21:37:28.953Z,5.85
2023-05-10T21:39:55.709Z,5.97
2023-05-10T21:42:27.122Z,6.30
2023-05-10T21:44:54.256Z,6.85
2023-05-10T21:47:23.559Z,7.13
2023-05-10T21:49:50.493Z,7.88
2023-05-10T21:52:19.447Z,8.40
2023-05-10T21:54:46.215Z,7.40
2023-05-10T21:57:15.389Z,7.95
2023-05-10T21:59:42.096Z,7.40
2023-05-10T22:02:11.213Z,8.10
2023-05-10T22:04:42.559Z,9.15
2023-05-10T22:07:11.789Z,9.55
2023-05-10T22:09:40.849Z,9.57
2023-05-10T22:12:07.637Z,9.75
2023-05-10T22:14:34.338Z,10.15
2023-05-10T22:17:03.261Z,10.20
2023-05-10T22:19:30.000Z,11.35
2023-05-10T22:21:56.706Z,10.23
2023-05-10T22:24:23.381Z,11.23
2023-05-10T22:26:49.992Z,11.73
2023-05-10T22:29:16.903Z,10.35
2023-05-10T22:31:43.539Z,11.13
2023-05-10T22:34:12.566Z,10.30
2023-05-10T22:36:39.189Z,9.73
2023-05-10T22:39:06.008Z,9.27
2023-05-10T22:41:35.578Z,9.98
2023-05-10T22:44:05.049Z,10.75
2023-05-10T22:46:34.416Z,12.88
2023-05-10T22:49:01.141Z,11.73
2023-05-10T22:51:27.918Z,12.93
2023-05-10T22:53:56.778Z,13.25
2023-05-10T22:56:25.948Z,14.10
2023-05-10T22:58:55.481Z,12.57
2023-05-10T23:01:22.133Z,13.05
2023-05-10T23:03:48.826Z,13.63
2023-05-10T23:06:15.507Z,13.80
2023-05-10T23:08:44.329Z,14.13
2023-05-10T23:11:10.964Z,13.32
2023-05-10T23:13:39.840Z,12.35
2023-05-10T23:16:06.914Z,13.02
2023-05-10T23:18:36.142Z,13.73
2023-05-10T23:21:02.847Z,12.88
2023-05-10T23:23:29.610Z,12.77
2023-05-10T23:25:56.612Z,12.32
2023-05-10T23:28:28.377Z,12.70
2023-05-10T23:30:58.612Z,11.98
2023-05-10T23:33:27.596Z,11.77
2023-05-10T23:35:56.583Z,11.20
2023-05-10T23:38:25.544Z,11.10
2023-05-10T23:40:54.924Z,10.93
2023-05-10T23:43:21.850Z,10.43
2023-05-10T23:45:58.370Z,9.75
2023-05-10T23:48:25.602Z,10.45
2023-05-10T23:50:52.327Z,9.40
2023-05-10T23:53:21.513Z,9.40
2023-05-10T23:55:48.144Z,8.88
2023-05-10T23:58:14.882Z,8.50
